sensor_id;sensor_type;location;lat;lon;timestamp;P1;durP1;ratioP1;P2;durP2;ratioP2
35326;SDS011;21436;52.348;20.928;2022-07-29T00:00:08;11.20;;;4.88;;
35326;SDS011;21436;52.348;20.928;2022-07-29T00:02:56;6.78;;;4.40;;
35326;SDS011;21436;52.348;20.928;2022-07-29T00:05:24;11.13;;;4.72;;
35326;SDS011;21436;52.348;20.928;2022-07-29T00:07:51;11.93;;;5.20;;
35326;SDS011;21436;52.348;20.928;2022-07-29T00:10:18;13.20;;;6.07;;
35326;SDS011;21436;52.348;20.928;2022-07-29T00:12:48;6.97;;;4.75;;
35326;SDS011;21436;52.348;20.928;2022-07-29T00:15:15;11.25;;;4.93;;
35326;SDS011;21436;52.348;20.928;2022-07-29T00:17:42;9.13;;;5.22;;
35326;SDS011;21436;52.348;20.928;2022-07-29T00:20:10;8.27;;;4.70;;
35326;SDS011;21436;52.348;20.928;2022-07-29T00:22:38;10.73;;;5.38;;
35326;SDS011;21436;52.348;20.928;2022-07-29T00:25:07;11.38;;;4.93;;
35326;SDS011;21436;52.348;20.928;2022-07-29T00:27:35;12.00;;;5.00;;
35326;SDS011;21436;52.348;20.928;2022-07-29T00:30:03;13.88;;;5.50;;
35326;SDS011;21436;52.348;20.928;2022-07-29T00:32:31;9.20;;;4.75;;
35326;SDS011;21436;52.348;20.928;2022-07-29T00:34:59;11.63;;;4.93;;
35326;SDS011;21436;52.348;20.928;2022-07-29T00:37:45;6.63;;;4.50;;
35326;SDS011;21436;52.348;20.928;2022-07-29T00:40:13;9.75;;;4.65;;
35326;SDS011;21436;52.348;20.928;2022-07-29T00:42:47;10.13;;;4.20;;
35326;SDS011;21436;52.348;20.928;2022-07-29T00:45:15;8.38;;;4.85;;
35326;SDS011;21436;52.348;20.928;2022-07-29T00:47:43;7.28;;;4.78;;
35326;SDS011;21436;52.348;20.928;2022-07-29T00:50:12;11.07;;;4.97;;
35326;SDS011;21436;52.348;20.928;2022-07-29T00:52:40;9.63;;;5.78;;
35326;SDS011;21436;52.348;20.928;2022-07-29T00:55:09;9.32;;;4.57;;
35326;SDS011;21436;52.348;20.928;2022-07-29T00:57:42;8.60;;;4.85;;
35326;SDS011;21436;52.348;20.928;2022-07-29T01:00:12;8.00;;;4.72;;
35326;SDS011;21436;52.348;20.928;2022-07-29T01:02:44;11.10;;;4.93;;
35326;SDS011;21436;52.348;20.928;2022-07-29T01:05:16;10.77;;;4.95;;
35326;SDS011;21436;52.348;20.928;2022-07-29T01:07:46;6.90;;;4.60;;
35326;SDS011;21436;52.348;20.928;2022-07-29T01:10:14;10.77;;;4.78;;
35326;SDS011;21436;52.348;20.928;2022-07-29T01:12:42;12.20;;;5.43;;
35326;SDS011;21436;52.348;20.928;2022-07-29T01:15:10;10.25;;;5.20;;
35326;SDS011;21436;52.348;20.928;2022-07-29T01:31:28;10.38;;;5.30;;
35326;SDS011;21436;52.348;20.928;2022-07-29T01:34:07;6.90;;;4.57;;
35326;SDS011;21436;52.348;20.928;2022-07-29T01:36:46;6.85;;;4.30;;
35326;SDS011;21436;52.348;20.928;2022-07-29T01:39:17;10.85;;;5.70;;
35326;SDS011;21436;52.348;20.928;2022-07-29T01:41:56;7.18;;;5.38;;
35326;SDS011;21436;52.348;20.928;2022-07-29T01:44:35;9.38;;;5.60;;
35326;SDS011;21436;52.348;20.928;2022-07-29T01:47:10;7.38;;;5.13;;
35326;SDS011;21436;52.348;20.928;2022-07-29T01:49:41;7.82;;;5.15;;
35326;SDS011;21436;52.348;20.928;2022-07-29T01:52:16;10.70;;;5.22;;
35326;SDS011;21436;52.348;20.928;2022-07-29T01:54:55;9.60;;;5.05;;
35326;SDS011;21436;52.348;20.928;2022-07-29T01:57:25;10.85;;;5.80;;
35326;SDS011;21436;52.348;20.928;2022-07-29T01:59:54;15.00;;;6.05;;
35326;SDS011;21436;52.348;20.928;2022-07-29T02:02:21;8.30;;;5.38;;
35326;SDS011;21436;52.348;20.928;2022-07-29T02:04:49;10.43;;;5.53;;
35326;SDS011;21436;52.348;20.928;2022-07-29T02:07:18;8.68;;;5.35;;
35326;SDS011;21436;52.348;20.928;2022-07-29T02:09:47;12.02;;;5.07;;
35326;SDS011;21436;52.348;20.928;2022-07-29T02:12:16;10.65;;;5.90;;
35326;SDS011;21436;52.348;20.928;2022-07-29T02:14:45;15.60;;;6.18;;
35326;SDS011;21436;52.348;20.928;2022-07-29T02:17:17;11.60;;;6.28;;
35326;SDS011;21436;52.348;20.928;2022-07-29T02:19:48;10.52;;;6.43;;
35326;SDS011;21436;52.348;20.928;2022-07-29T02:22:16;15.45;;;6.38;;
35326;SDS011;21436;52.348;20.928;2022-07-29T02:24:45;9.57;;;6.20;;
35326;SDS011;21436;52.348;20.928;2022-07-29T02:27:14;11.38;;;5.95;;
35326;SDS011;21436;52.348;20.928;2022-07-29T02:29:42;9.35;;;6.00;;
35326;SDS011;21436;52.348;20.928;2022-07-29T02:32:10;9.70;;;5.97;;
35326;SDS011;21436;52.348;20.928;2022-07-29T02:34:39;11.23;;;6.30;;
35326;SDS011;21436;52.348;20.928;2022-07-29T02:37:08;7.90;;;5.60;;
35326;SDS011;21436;52.348;20.928;2022-07-29T02:39:36;11.57;;;6.38;;
35326;SDS011;21436;52.348;20.928;2022-07-29T02:42:05;10.50;;;6.57;;
35326;SDS011;21436;52.348;20.928;2022-07-29T02:44:34;10.07;;;6.10;;
35326;SDS011;21436;52.348;20.928;2022-07-29T02:47:13;9.00;;;6.40;;
35326;SDS011;21436;52.348;20.928;2022-07-29T02:52:42;11.77;;;6.35;;
35326;SDS011;21436;52.348;20.928;2022-07-29T03:00:59;11.88;;;5.65;;
35326;SDS011;21436;52.348;20.928;2022-07-29T03:03:34;11.60;;;6.90;;
35326;SDS011;21436;52.348;20.928;2022-07-29T03:06:03;13.65;;;6.65;;
35326;SDS011;21436;52.348;20.928;2022-07-29T03:08:32;8.65;;;5.88;;
35326;SDS011;21436;52.348;20.928;2022-07-29T03:10:59;8.95;;;5.90;;
35326;SDS011;21436;52.348;20.928;2022-07-29T03:13:27;9.70;;;6.20;;
35326;SDS011;21436;52.348;20.928;2022-07-29T03:15:56;9.35;;;5.93;;
35326;SDS011;21436;52.348;20.928;2022-07-29T03:18:25;10.52;;;6.10;;
35326;SDS011;21436;52.348;20.928;2022-07-29T03:20:52;10.52;;;6.68;;
35326;SDS011;21436;52.348;20.928;2022-07-29T03:23:20;13.18;;;6.25;;
35326;SDS011;21436;52.348;20.928;2022-07-29T03:25:50;10.48;;;5.68;;
35326;SDS011;21436;52.348;20.928;2022-07-29T03:28:18;10.52;;;5.82;;
35326;SDS011;21436;52.348;20.928;2022-07-29T03:30:48;10.40;;;5.85;;
35326;SDS011;21436;52.348;20.928;2022-07-29T03:33:15;10.88;;;7.50;;
35326;SDS011;21436;52.348;20.928;2022-07-29T03:35:42;11.98;;;5.82;;
35326;SDS011;21436;52.348;20.928;2022-07-29T03:38:10;13.07;;;6.32;;
35326;SDS011;21436;52.348;20.928;2022-07-29T03:40:38;9.85;;;6.28;;
35326;SDS011;21436;52.348;20.928;2022-07-29T03:43:10;11.07;;;6.20;;
35326;SDS011;21436;52.348;20.928;2022-07-29T03:45:38;13.23;;;6.60;;
35326;SDS011;21436;52.348;20.928;2022-07-29T03:48:07;7.80;;;5.75;;
35326;SDS011;21436;52.348;20.928;2022-07-29T03:50:35;7.00;;;5.50;;
35326;SDS011;21436;52.348;20.928;2022-07-29T03:53:03;14.77;;;6.97;;
35326;SDS011;21436;52.348;20.928;2022-07-29T03:55:32;7.22;;;5.80;;
35326;SDS011;21436;52.348;20.928;2022-07-29T03:58:09;9.93;;;5.72;;
35326;SDS011;21436;52.348;20.928;2022-07-29T04:00:38;11.68;;;6.78;;
35326;SDS011;21436;52.348;20.928;2022-07-29T04:03:05;10.02;;;6.80;;
35326;SDS011;21436;52.348;20.928;2022-07-29T04:05:37;9.48;;;6.07;;
35326;SDS011;21436;52.348;20.928;2022-07-29T04:08:05;12.10;;;6.00;;
35326;SDS011;21436;52.348;20.928;2022-07-29T04:10:32;10.60;;;6.15;;
35326;SDS011;21436;52.348;20.928;2022-07-29T04:13:01;10.32;;;6.68;;
35326;SDS011;21436;52.348;20.928;2022-07-29T04:15:29;8.60;;;6.18;;
35326;SDS011;21436;52.348;20.928;2022-07-29T04:17:58;10.07;;;6.53;;
35326;SDS011;21436;52.348;20.928;2022-07-29T04:20:26;11.75;;;6.25;;
35326;SDS011;21436;52.348;20.928;2022-07-29T04:22:53;12.52;;;6.53;;
35326;SDS011;21436;52.348;20.928;2022-07-29T04:25:20;13.18;;;5.88;;
35326;SDS011;21436;52.348;20.928;2022-07-29T04:27:48;9.80;;;5.72;;
35326;SDS011;21436;52.348;20.928;2022-07-29T04:30:28;11.80;;;5.63;;
35326;SDS011;21436;52.348;20.928;2022-07-29T04:32:55;9.13;;;6.25;;
35326;SDS011;21436;52.348;20.928;2022-07-29T04:35:23;6.95;;;5.50;;
35326;SDS011;21436;52.348;20.928;2022-07-29T04:37:50;7.63;;;4.78;;
35326;SDS011;21436;52.348;20.928;2022-07-29T04:40:17;8.88;;;5.47;;
35326;SDS011;21436;52.348;20.928;2022-07-29T04:42:45;10.07;;;4.93;;
35326;SDS011;21436;52.348;20.928;2022-07-29T04:45:13;8.30;;;5.03;;
35326;SDS011;21436;52.348;20.928;2022-07-29T04:47:41;5.97;;;5.15;;
35326;SDS011;21436;52.348;20.928;2022-07-29T04:50:09;8.20;;;4.82;;
35326;SDS011;21436;52.348;20.928;2022-07-29T04:52:36;6.45;;;5.00;;
35326;SDS011;21436;52.348;20.928;2022-07-29T04:55:04;8.07;;;4.55;;
35326;SDS011;21436;52.348;20.928;2022-07-29T04:57:32;9.68;;;4.78;;
35326;SDS011;21436;52.348;20.928;2022-07-29T04:59:59;7.90;;;4.93;;
35326;SDS011;21436;52.348;20.928;2022-07-29T05:02:26;7.25;;;4.97;;
35326;SDS011;21436;52.348;20.928;2022-07-29T05:04:54;7.70;;;4.68;;
35326;SDS011;21436;52.348;20.928;2022-07-29T05:07:21;7.45;;;4.18;;
35326;SDS011;21436;52.348;20.928;2022-07-29T05:09:48;7.38;;;3.85;;
35326;SDS011;21436;52.348;20.928;2022-07-29T05:12:18;6.55;;;3.38;;
35326;SDS011;21436;52.348;20.928;2022-07-29T05:14:45;5.13;;;3.35;;
35326;SDS011;21436;52.348;20.928;2022-07-29T05:17:12;8.52;;;3.50;;
35326;SDS011;21436;52.348;20.928;2022-07-29T05:19:40;5.20;;;3.40;;
35326;SDS011;21436;52.348;20.928;2022-07-29T05:22:07;6.05;;;3.20;;
35326;SDS011;21436;52.348;20.928;2022-07-29T05:24:35;5.20;;;3.03;;
35326;SDS011;21436;52.348;20.928;2022-07-29T05:27:02;5.43;;;2.25;;
35326;SDS011;21436;52.348;20.928;2022-07-29T05:29:29;3.20;;;2.35;;
35326;SDS011;21436;52.348;20.928;2022-07-29T05:32:11;3.05;;;2.20;;
35326;SDS011;21436;52.348;20.928;2022-07-29T05:34:40;3.85;;;2.10;;
35326;SDS011;21436;52.348;20.928;2022-07-29T05:37:20;3.03;;;1.90;;
35326;SDS011;21436;52.348;20.928;2022-07-29T05:39:47;5.57;;;2.78;;
35326;SDS011;21436;52.348;20.928;2022-07-29T05:42:23;9.60;;;1.90;;
35326;SDS011;21436;52.348;20.928;2022-07-29T05:47:18;1.65;;;1.40;;
35326;SDS011;21436;52.348;20.928;2022-07-29T05:49:46;3.67;;;1.70;;
35326;SDS011;21436;52.348;20.928;2022-07-29T05:52:13;5.38;;;2.22;;
35326;SDS011;21436;52.348;20.928;2022-07-29T05:54:41;2.53;;;1.60;;
35326;SDS011;21436;52.348;20.928;2022-07-29T05:57:08;2.80;;;1.92;;
35326;SDS011;21436;52.348;20.928;2022-07-29T05:59:36;4.60;;;1.52;;
35326;SDS011;21436;52.348;20.928;2022-07-29T06:02:04;3.40;;;1.50;;
35326;SDS011;21436;52.348;20.928;2022-07-29T06:04:32;2.90;;;1.63;;
35326;SDS011;21436;52.348;20.928;2022-07-29T06:07:00;5.65;;;2.88;;
35326;SDS011;21436;52.348;20.928;2022-07-29T06:09:28;3.35;;;1.48;;
35326;SDS011;21436;52.348;20.928;2022-07-29T06:11:56;6.07;;;1.60;;
35326;SDS011;21436;52.348;20.928;2022-07-29T06:14:24;7.80;;;1.65;;
35326;SDS011;21436;52.348;20.928;2022-07-29T06:16:53;4.32;;;1.80;;
35326;SDS011;21436;52.348;20.928;2022-07-29T06:19:20;5.05;;;1.60;;
35326;SDS011;21436;52.348;20.928;2022-07-29T06:21:49;2.10;;;1.73;;
35326;SDS011;21436;52.348;20.928;2022-07-29T06:24:16;3.40;;;1.38;;
35326;SDS011;21436;52.348;20.928;2022-07-29T06:26:45;3.25;;;1.50;;
35326;SDS011;21436;52.348;20.928;2022-07-29T06:29:12;4.93;;;1.45;;
35326;SDS011;21436;52.348;20.928;2022-07-29T06:31:39;4.65;;;1.40;;
35326;SDS011;21436;52.348;20.928;2022-07-29T06:34:07;1.92;;;1.30;;
35326;SDS011;21436;52.348;20.928;2022-07-29T06:36:37;1.85;;;1.30;;
35326;SDS011;21436;52.348;20.928;2022-07-29T06:39:07;3.60;;;1.38;;
35326;SDS011;21436;52.348;20.928;2022-07-29T06:41:34;4.45;;;1.25;;
35326;SDS011;21436;52.348;20.928;2022-07-29T06:44:08;2.05;;;1.25;;
35326;SDS011;21436;52.348;20.928;2022-07-29T06:46:36;2.53;;;1.50;;
35326;SDS011;21436;52.348;20.928;2022-07-29T06:49:03;9.45;;;1.60;;
35326;SDS011;21436;52.348;20.928;2022-07-29T06:51:31;2.95;;;1.27;;
35326;SDS011;21436;52.348;20.928;2022-07-29T06:53:59;1.38;;;1.05;;
35326;SDS011;21436;52.348;20.928;2022-07-29T06:56:33;4.85;;;1.10;;
35326;SDS011;21436;52.348;20.928;2022-07-29T06:59:05;3.65;;;1.85;;
35326;SDS011;21436;52.348;20.928;2022-07-29T07:01:36;2.85;;;1.42;;
35326;SDS011;21436;52.348;20.928;2022-07-29T07:04:05;3.42;;;1.20;;
35326;SDS011;21436;52.348;20.928;2022-07-29T07:06:33;5.57;;;1.23;;
35326;SDS011;21436;52.348;20.928;2022-07-29T07:09:00;1.55;;;1.10;;
35326;SDS011;21436;52.348;20.928;2022-07-29T07:11:27;5.20;;;1.50;;
35326;SDS011;21436;52.348;20.928;2022-07-29T07:13:55;5.43;;;1.35;;
35326;SDS011;21436;52.348;20.928;2022-07-29T07:16:29;3.72;;;1.30;;
35326;SDS011;21436;52.348;20.928;2022-07-29T07:18:56;5.10;;;1.20;;
35326;SDS011;21436;52.348;20.928;2022-07-29T07:21:23;5.13;;;1.20;;
35326;SDS011;21436;52.348;20.928;2022-07-29T07:23:51;1.90;;;1.00;;
35326;SDS011;21436;52.348;20.928;2022-07-29T07:26:18;1.70;;;1.05;;
35326;SDS011;21436;52.348;20.928;2022-07-29T07:28:45;4.15;;;1.30;;
35326;SDS011;21436;52.348;20.928;2022-07-29T07:31:12;1.45;;;1.20;;
35326;SDS011;21436;52.348;20.928;2022-07-29T07:33:41;4.95;;;1.13;;
35326;SDS011;21436;52.348;20.928;2022-07-29T07:36:08;4.10;;;1.30;;
35326;SDS011;21436;52.348;20.928;2022-07-29T07:38:35;1.70;;;0.90;;
35326;SDS011;21436;52.348;20.928;2022-07-29T07:41:02;3.60;;;1.52;;
35326;SDS011;21436;52.348;20.928;2022-07-29T07:43:30;2.30;;;1.13;;
35326;SDS011;21436;52.348;20.928;2022-07-29T07:45:57;3.83;;;1.20;;
35326;SDS011;21436;52.348;20.928;2022-07-29T07:48:25;2.70;;;1.10;;
35326;SDS011;21436;52.348;20.928;2022-07-29T07:50:52;1.20;;;1.10;;
35326;SDS011;21436;52.348;20.928;2022-07-29T07:53:20;2.17;;;1.10;;
35326;SDS011;21436;52.348;20.928;2022-07-29T07:55:48;4.50;;;1.27;;
35326;SDS011;21436;52.348;20.928;2022-07-29T07:58:35;3.33;;;1.05;;
35326;SDS011;21436;52.348;20.928;2022-07-29T08:01:03;4.03;;;1.52;;
35326;SDS011;21436;52.348;20.928;2022-07-29T08:03:30;5.65;;;1.10;;
35326;SDS011;21436;52.348;20.928;2022-07-29T08:05:57;2.65;;;1.33;;
35326;SDS011;21436;52.348;20.928;2022-07-29T08:08:25;1.77;;;0.98;;
35326;SDS011;21436;52.348;20.928;2022-07-29T08:10:52;2.55;;;1.20;;
35326;SDS011;21436;52.348;20.928;2022-07-29T08:13:20;3.45;;;1.48;;
35326;SDS011;21436;52.348;20.928;2022-07-29T08:15:48;4.28;;;1.20;;
35326;SDS011;21436;52.348;20.928;2022-07-29T08:18:25;1.40;;;0.90;;
35326;SDS011;21436;52.348;20.928;2022-07-29T08:20:53;1.45;;;1.33;;
35326;SDS011;21436;52.348;20.928;2022-07-29T08:23:21;6.97;;;1.10;;
35326;SDS011;21436;52.348;20.928;2022-07-29T08:25:50;4.18;;;1.15;;
35326;SDS011;21436;52.348;20.928;2022-07-29T08:28:20;2.85;;;1.10;;
35326;SDS011;21436;52.348;20.928;2022-07-29T08:30:51;6.82;;;1.33;;
35326;SDS011;21436;52.348;20.928;2022-07-29T08:33:19;2.70;;;1.13;;
35326;SDS011;21436;52.348;20.928;2022-07-29T08:35:46;2.78;;;1.10;;
35326;SDS011;21436;52.348;20.928;2022-07-29T08:38:14;4.07;;;1.20;;
35326;SDS011;21436;52.348;20.928;2022-07-29T08:40:41;1.30;;;1.10;;
35326;SDS011;21436;52.348;20.928;2022-07-29T08:43:08;2.30;;;1.52;;
35326;SDS011;21436;52.348;20.928;2022-07-29T08:45:41;3.47;;;1.30;;
35326;SDS011;21436;52.348;20.928;2022-07-29T08:48:18;3.85;;;1.50;;
35326;SDS011;21436;52.348;20.928;2022-07-29T08:50:48;4.38;;;1.10;;
35326;SDS011;21436;52.348;20.928;2022-07-29T08:53:17;2.58;;;1.40;;
35326;SDS011;21436;52.348;20.928;2022-07-29T08:55:46;15.57;;;2.67;;
35326;SDS011;21436;52.348;20.928;2022-07-29T08:58:15;3.60;;;1.30;;
35326;SDS011;21436;52.348;20.928;2022-07-29T09:00:54;1.45;;;1.20;;
35326;SDS011;21436;52.348;20.928;2022-07-29T09:03:24;4.45;;;1.15;;
35326;SDS011;21436;52.348;20.928;2022-07-29T09:05:53;5.38;;;1.20;;
35326;SDS011;21436;52.348;20.928;2022-07-29T09:08:20;4.72;;;1.40;;
35326;SDS011;21436;52.348;20.928;2022-07-29T09:10:48;4.72;;;1.77;;
35326;SDS011;21436;52.348;20.928;2022-07-29T09:13:16;4.07;;;1.20;;
35326;SDS011;21436;52.348;20.928;2022-07-29T09:15:43;3.60;;;1.40;;
35326;SDS011;21436;52.348;20.928;2022-07-29T09:18:11;2.85;;;1.33;;
35326;SDS011;21436;52.348;20.928;2022-07-29T09:20:56;4.43;;;1.17;;
35326;SDS011;21436;52.348;20.928;2022-07-29T09:23:58;4.57;;;1.10;;
35326;SDS011;21436;52.348;20.928;2022-07-29T09:26:30;7.78;;;1.38;;
35326;SDS011;21436;52.348;20.928;2022-07-29T09:28:58;3.60;;;1.73;;
35326;SDS011;21436;52.348;20.928;2022-07-29T09:31:32;6.32;;;1.63;;
35326;SDS011;21436;52.348;20.928;2022-07-29T09:34:02;3.17;;;1.30;;
35326;SDS011;21436;52.348;20.928;2022-07-29T09:36:30;1.52;;;1.10;;
35326;SDS011;21436;52.348;20.928;2022-07-29T09:38:58;6.72;;;1.50;;
35326;SDS011;21436;52.348;20.928;2022-07-29T09:41:30;1.52;;;0.85;;
35326;SDS011;21436;52.348;20.928;2022-07-29T09:44:11;3.17;;;1.52;;
35326;SDS011;21436;52.348;20.928;2022-07-29T09:46:38;1.65;;;0.93;;
35326;SDS011;21436;52.348;20.928;2022-07-29T09:49:06;4.53;;;1.50;;
35326;SDS011;21436;52.348;20.928;2022-07-29T09:51:39;4.20;;;1.52;;
35326;SDS011;21436;52.348;20.928;2022-07-29T09:56:54;1.92;;;1.13;;
35326;SDS011;21436;52.348;20.928;2022-07-29T09:59:23;1.80;;;1.15;;
35326;SDS011;21436;52.348;20.928;2022-07-29T10:01:53;2.05;;;1.02;;
35326;SDS011;21436;52.348;20.928;2022-07-29T10:04:21;4.80;;;1.10;;
35326;SDS011;21436;52.348;20.928;2022-07-29T10:06:59;4.22;;;1.20;;
35326;SDS011;21436;52.348;20.928;2022-07-29T10:09:31;3.17;;;0.93;;
35326;SDS011;21436;52.348;20.928;2022-07-29T10:14:33;3.20;;;1.30;;
35326;SDS011;21436;52.348;20.928;2022-07-29T10:17:02;5.35;;;1.20;;
35326;SDS011;21436;52.348;20.928;2022-07-29T10:19:30;1.23;;;1.00;;
35326;SDS011;21436;52.348;20.928;2022-07-29T10:21:58;4.25;;;0.98;;
35326;SDS011;21436;52.348;20.928;2022-07-29T10:24:27;1.90;;;1.10;;
35326;SDS011;21436;52.348;20.928;2022-07-29T10:26:54;4.00;;;1.13;;
35326;SDS011;21436;52.348;20.928;2022-07-29T10:29:23;2.45;;;1.33;;
35326;SDS011;21436;52.348;20.928;2022-07-29T10:32:09;2.63;;;1.23;;
35326;SDS011;21436;52.348;20.928;2022-07-29T10:34:59;5.10;;;1.38;;
35326;SDS011;21436;52.348;20.928;2022-07-29T10:43:45;4.97;;;1.13;;
35326;SDS011;21436;52.348;20.928;2022-07-29T10:46:17;1.20;;;1.10;;
35326;SDS011;21436;52.348;20.928;2022-07-29T10:54:39;3.05;;;1.10;;
35326;SDS011;21436;52.348;20.928;2022-07-29T10:57:20;3.97;;;0.93;;
35326;SDS011;21436;52.348;20.928;2022-07-29T11:02:43;2.55;;;0.82;;
35326;SDS011;21436;52.348;20.928;2022-07-29T11:05:16;3.13;;;1.02;;
35326;SDS011;21436;52.348;20.928;2022-07-29T11:11:38;8.05;;;1.17;;
35326;SDS011;21436;52.348;20.928;2022-07-29T11:13:49;2.30;;;0.90;;
35326;SDS011;21436;52.348;20.928;2022-07-29T11:16:18;2.15;;;0.90;;
35326;SDS011;21436;52.348;20.928;2022-07-29T11:21:39;4.05;;;1.05;;
35326;SDS011;21436;52.348;20.928;2022-07-29T11:24:22;3.97;;;1.00;;
35326;SDS011;21436;52.348;20.928;2022-07-29T11:27:15;2.90;;;1.20;;
35326;SDS011;21436;52.348;20.928;2022-07-29T11:30:03;2.55;;;0.82;;
35326;SDS011;21436;52.348;20.928;2022-07-29T11:32:36;1.83;;;0.90;;
35326;SDS011;21436;52.348;20.928;2022-07-29T11:35:13;3.30;;;1.02;;
35326;SDS011;21436;52.348;20.928;2022-07-29T11:37:45;3.38;;;0.98;;
35326;SDS011;21436;52.348;20.928;2022-07-29T11:40:21;1.63;;;0.88;;
35326;SDS011;21436;52.348;20.928;2022-07-29T11:42:49;3.08;;;0.98;;
35326;SDS011;21436;52.348;20.928;2022-07-29T11:45:21;2.17;;;1.15;;
35326;SDS011;21436;52.348;20.928;2022-07-29T11:48:17;1.73;;;0.90;;
35326;SDS011;21436;52.348;20.928;2022-07-29T11:51:08;1.58;;;1.02;;
35326;SDS011;21436;52.348;20.928;2022-07-29T11:53:39;8.27;;;1.27;;
35326;SDS011;21436;52.348;20.928;2022-07-29T11:56:07;2.72;;;1.02;;
35326;SDS011;21436;52.348;20.928;2022-07-29T11:58:36;2.40;;;0.95;;
35326;SDS011;21436;52.348;20.928;2022-07-29T12:01:04;0.90;;;0.80;;
35326;SDS011;21436;52.348;20.928;2022-07-29T12:03:33;2.97;;;1.00;;
35326;SDS011;21436;52.348;20.928;2022-07-29T12:06:03;4.03;;;1.00;;
35326;SDS011;21436;52.348;20.928;2022-07-29T12:08:40;4.20;;;1.02;;
35326;SDS011;21436;52.348;20.928;2022-07-29T12:11:16;2.40;;;0.88;;
35326;SDS011;21436;52.348;20.928;2022-07-29T12:13:50;2.10;;;0.88;;
35326;SDS011;21436;52.348;20.928;2022-07-29T12:16:18;4.78;;;1.00;;
35326;SDS011;21436;52.348;20.928;2022-07-29T12:18:59;5.35;;;0.85;;
35326;SDS011;21436;52.348;20.928;2022-07-29T12:23:57;8.38;;;0.90;;
35326;SDS011;21436;52.348;20.928;2022-07-29T12:26:34;1.33;;;1.00;;
35326;SDS011;21436;52.348;20.928;2022-07-29T12:29:02;3.10;;;1.10;;
35326;SDS011;21436;52.348;20.928;2022-07-29T12:31:39;1.45;;;0.93;;
35326;SDS011;21436;52.348;20.928;2022-07-29T12:34:12;3.00;;;0.82;;
35326;SDS011;21436;52.348;20.928;2022-07-29T12:36:40;6.63;;;1.00;;
35326;SDS011;21436;52.348;20.928;2022-07-29T12:39:09;3.30;;;0.90;;
35326;SDS011;21436;52.348;20.928;2022-07-29T12:41:37;2.45;;;0.80;;
35326;SDS011;21436;52.348;20.928;2022-07-29T12:44:05;1.77;;;0.85;;
35326;SDS011;21436;52.348;20.928;2022-07-29T12:46:33;1.85;;;1.00;;
35326;SDS011;21436;52.348;20.928;2022-07-29T12:49:00;8.52;;;1.20;;
35326;SDS011;21436;52.348;20.928;2022-07-29T12:51:30;2.45;;;0.90;;
35326;SDS011;21436;52.348;20.928;2022-07-29T12:54:05;4.53;;;0.98;;
35326;SDS011;21436;52.348;20.928;2022-07-29T12:56:40;2.78;;;1.00;;
35326;SDS011;21436;52.348;20.928;2022-07-29T12:59:17;1.42;;;1.13;;
35326;SDS011;21436;52.348;20.928;2022-07-29T13:01:47;4.40;;;1.00;;
35326;SDS011;21436;52.348;20.928;2022-07-29T13:04:29;1.50;;;0.90;;
35326;SDS011;21436;52.348;20.928;2022-07-29T13:07:01;3.17;;;0.90;;
35326;SDS011;21436;52.348;20.928;2022-07-29T13:09:37;1.50;;;0.90;;
35326;SDS011;21436;52.348;20.928;2022-07-29T13:12:08;1.02;;;0.90;;
35326;SDS011;21436;52.348;20.928;2022-07-29T13:14:38;1.13;;;0.82;;
35326;SDS011;21436;52.348;20.928;2022-07-29T13:17:13;1.52;;;0.80;;
35326;SDS011;21436;52.348;20.928;2022-07-29T13:19:52;1.80;;;0.80;;
35326;SDS011;21436;52.348;20.928;2022-07-29T13:22:21;6.50;;;1.20;;
35326;SDS011;21436;52.348;20.928;2022-07-29T13:27:21;3.97;;;1.00;;
35326;SDS011;21436;52.348;20.928;2022-07-29T13:29:50;1.60;;;0.90;;
35326;SDS011;21436;52.348;20.928;2022-07-29T13:32:23;6.25;;;0.93;;
35326;SDS011;21436;52.348;20.928;2022-07-29T13:34:55;3.70;;;0.90;;
35326;SDS011;21436;52.348;20.928;2022-07-29T13:37:23;3.42;;;1.10;;
35326;SDS011;21436;52.348;20.928;2022-07-29T13:39:51;6.60;;;1.10;;
35326;SDS011;21436;52.348;20.928;2022-07-29T13:42:19;2.55;;;1.15;;
35326;SDS011;21436;52.348;20.928;2022-07-29T13:44:46;1.88;;;1.20;;
35326;SDS011;21436;52.348;20.928;2022-07-29T13:47:15;3.53;;;0.98;;
35326;SDS011;21436;52.348;20.928;2022-07-29T13:49:43;1.42;;;1.13;;
35326;SDS011;21436;52.348;20.928;2022-07-29T13:52:10;1.90;;;0.98;;
35326;SDS011;21436;52.348;20.928;2022-07-29T13:54:38;3.20;;;1.00;;
35326;SDS011;21436;52.348;20.928;2022-07-29T13:57:09;1.73;;;1.00;;
35326;SDS011;21436;52.348;20.928;2022-07-29T13:59:40;2.88;;;1.00;;
35326;SDS011;21436;52.348;20.928;2022-07-29T14:02:09;3.90;;;1.05;;
35326;SDS011;21436;52.348;20.928;2022-07-29T14:04:37;3.08;;;1.48;;
35326;SDS011;21436;52.348;20.928;2022-07-29T14:07:05;2.05;;;0.98;;
35326;SDS011;21436;52.348;20.928;2022-07-29T14:09:33;5.00;;;1.27;;
35326;SDS011;21436;52.348;20.928;2022-07-29T14:12:07;5.13;;;1.25;;
35326;SDS011;21436;52.348;20.928;2022-07-29T14:14:35;3.22;;;1.00;;
35326;SDS011;21436;52.348;20.928;2022-07-29T14:17:03;1.92;;;1.10;;
35326;SDS011;21436;52.348;20.928;2022-07-29T14:19:33;2.03;;;0.90;;
35326;SDS011;21436;52.348;20.928;2022-07-29T14:22:05;2.47;;;1.13;;
35326;SDS011;21436;52.348;20.928;2022-07-29T14:24:35;2.95;;;1.15;;
35326;SDS011;21436;52.348;20.928;2022-07-29T14:27:06;2.60;;;1.38;;
35326;SDS011;21436;52.348;20.928;2022-07-29T14:29:34;4.00;;;0.80;;
35326;SDS011;21436;52.348;20.928;2022-07-29T14:32:05;2.45;;;1.00;;
35326;SDS011;21436;52.348;20.928;2022-07-29T14:34:37;4.18;;;1.88;;
35326;SDS011;21436;52.348;20.928;2022-07-29T14:37:05;2.53;;;1.00;;
35326;SDS011;21436;52.348;20.928;2022-07-29T14:39:33;3.55;;;1.33;;
35326;SDS011;21436;52.348;20.928;2022-07-29T14:42:09;3.05;;;1.00;;
35326;SDS011;21436;52.348;20.928;2022-07-29T14:44:39;4.53;;;0.70;;
35326;SDS011;21436;52.348;20.928;2022-07-29T14:47:07;2.38;;;1.00;;
35326;SDS011;21436;52.348;20.928;2022-07-29T14:49:35;1.63;;;1.00;;
35326;SDS011;21436;52.348;20.928;2022-07-29T14:52:03;1.48;;;1.00;;
35326;SDS011;21436;52.348;20.928;2022-07-29T14:54:30;1.05;;;0.60;;
35326;SDS011;21436;52.348;20.928;2022-07-29T14:56:58;1.40;;;0.90;;
35326;SDS011;21436;52.348;20.928;2022-07-29T14:59:25;5.90;;;1.63;;
35326;SDS011;21436;52.348;20.928;2022-07-29T15:01:53;4.00;;;1.40;;
35326;SDS011;21436;52.348;20.928;2022-07-29T15:04:21;1.50;;;0.80;;
35326;SDS011;21436;52.348;20.928;2022-07-29T15:06:48;2.83;;;0.73;;
35326;SDS011;21436;52.348;20.928;2022-07-29T15:09:16;1.27;;;0.70;;
35326;SDS011;21436;52.348;20.928;2022-07-29T15:11:43;2.33;;;0.90;;
35326;SDS011;21436;52.348;20.928;2022-07-29T15:14:11;1.75;;;0.73;;
35326;SDS011;21436;52.348;20.928;2022-07-29T15:16:38;1.27;;;0.65;;
35326;SDS011;21436;52.348;20.928;2022-07-29T15:19:10;2.08;;;1.00;;
35326;SDS011;21436;52.348;20.928;2022-07-29T15:21:38;2.30;;;1.02;;
35326;SDS011;21436;52.348;20.928;2022-07-29T15:24:14;5.15;;;1.15;;
35326;SDS011;21436;52.348;20.928;2022-07-29T15:26:43;2.72;;;0.90;;
35326;SDS011;21436;52.348;20.928;2022-07-29T15:29:11;2.30;;;1.00;;
35326;SDS011;21436;52.348;20.928;2022-07-29T15:31:38;3.50;;;0.90;;
35326;SDS011;21436;52.348;20.928;2022-07-29T15:34:07;1.45;;;0.88;;
35326;SDS011;21436;52.348;20.928;2022-07-29T15:36:34;2.50;;;0.93;;
35326;SDS011;21436;52.348;20.928;2022-07-29T15:39:19;2.45;;;1.40;;
35326;SDS011;21436;52.348;20.928;2022-07-29T15:41:46;1.83;;;0.90;;
35326;SDS011;21436;52.348;20.928;2022-07-29T15:44:14;1.52;;;0.80;;
35326;SDS011;21436;52.348;20.928;2022-07-29T15:46:41;0.93;;;0.80;;